Stations météo

Publicité
Besancon, France (7288): Température de l'air & dewpoint: 18.01.2021 06:00:00 - 24.01.2021 06:00:00 (CET)Besancon, France (7288): Température de l'air 5cm: 18.01.2021 06:00:00 - 24.01.2021 06:00:00 (CET)Besancon, France (7288): Température de l'air -20cm & Température de l'air -100cm: 18.01.2021 06:00:00 - 24.01.2021 06:00:00 (CET)Besancon, France (7288): Vitesse du vent & gusts: 18.01.2021 06:00:00 - 24.01.2021 06:00:00 (CET)Besancon, France (7288): Direction du vent: 18.01.2021 06:00:00 - 24.01.2021 06:00:00 (CET)Besancon, France (7288): reduced air pressure: 18.01.2021 06:00:00 - 24.01.2021 06:00:00 (CET)Besancon, France (7288): Ensoleillement: 18.01.2021 06:00:00 - 24.01.2021 06:00:00 (CET)Besancon, France (7288): Quantités de précipitations: 18.01.2021 06:00:00 - 24.01.2021 06:00:00 (CET)
Date & Time tt [°C] td [°C] tt 5cm [°C] tt -20cm [°C] tt -100cm [°C] ff [km/h] ff [knt] fx [km/h] fx [knt] dd ppp [hPa] sd [min] rr [mm]
24.01.2021 06:00:00 -0,4 -2,1 -3,3 4,3 5,9 3 1 6 4 S 1004,5 0 0,0
24.01.2021 05:00:00 -0,3 -2,2 -2,3 4,4 5,9 0 0 8 5 N 1004,2 0 0,0
24.01.2021 04:00:00 0,0 -1,8 -1,6 4,4 5,9 3 2 11 6 S 1003,5 0 0,0
24.01.2021 03:00:00 0,9 -1,5 -0,5 4,5 5,8 6 3 16 9 WSW 1002,7 0 0,0
24.01.2021 02:00:00 1,5 0,3 1,0 4,5 5,8 8 4 18 10 SW 1002,1 0 0,0
24.01.2021 01:00:00 1,5 0,5 0,8 4,5 5,8 6 3 27 15 SW 1001,1 0 0,0
24.01.2021 00:00:00 2,2 0,9 0,7 4,6 5,8 11 6 43 23 WSW 1000,1 0 0,8
23.01.2021 23:00:00 3,3 1,7 2,6 4,6 5,8 11 6 27 15 SW 998,4 0 0,0
23.01.2021 22:00:00 3,5 2,0 2,9 4,6 5,8 11 6 33 18 SW 997,9 0 0,0
23.01.2021 21:00:00 3,9 2,4 3,0 4,6 5,8 16 9 47 25 SW 996,6 0 0,0
23.01.2021 20:00:00 3,2 2,3 2,6 4,6 5,8 11 6 28 15 SSW 995,3 0 1,0
23.01.2021 19:00:00 3,6 2,6 2,8 4,6 5,8 11 6 29 16 SSW 995,3 0 1,6
23.01.2021 18:00:00 3,5 2,3 2,6 4,6 5,8 8 4 35 19 SSW 995,3 0 1,0
23.01.2021 17:00:00 3,1 2,1 2,2 4,6 5,8 5 3 31 17 S 995,0 20 0,8
23.01.2021 16:00:00 3,3 1,8 2,4 4,5 5,8 18 10 51 28 SW 995,7 0 2,8
23.01.2021 15:00:00 6,6 0,9 6,5 4,4 5,8 16 9 44 24 SSW 994,5 13 0,0
23.01.2021 14:00:00 6,6 0,9 6,6 4,4 5,8 13 7 37 20 SSW 995,3 12 0,0
23.01.2021 13:00:00 5,9 0,4 5,8 4,4 5,7 11 6 40 22 S 996,7 1 0,0
23.01.2021 12:00:00 5,1 1,0 4,0 4,4 5,7 8 4 23 12 S 998,0 9 0,0
23.01.2021 11:00:00 4,2 1,4 3,0 4,5 5,7 5 3 24 13 SSE 999,6 36 0,0
23.01.2021 10:00:00 3,2 1,4 2,1 4,5 5,7 8 4 26 14 SSW 1001,1 1 0,0
23.01.2021 09:00:00 2,5 1,5 1,8 4,6 5,7 3 2 23 12 S 1002,1 0 0,0
23.01.2021 08:00:00 2,6 1,3 1,7 4,6 5,7 6 3 18 10 SSW 1002,6 0 0,0
23.01.2021 07:00:00 2,5 1,3 1,0 4,7 5,7 6 3 20 11 SSW 1003,2 0 0,0
23.01.2021 06:00:00 2,0 1,1 0,4 4,8 5,7 5 3 17 9 SSW 1003,6 0 0,0
23.01.2021 05:00:00 2,2 1,2 0,9 4,9 5,7 5 3 17 9 S 1003,8 0 0,4
23.01.2021 04:00:00 2,2 1,3 0,7 5,0 5,7 6 4 18 10 S 1004,1 0 0,0
23.01.2021 03:00:00 1,9 1,2 1,0 5,1 5,7 5 3 14 8 S 1004,1 0 0,0
23.01.2021 02:00:00 1,8 1,4 0,9 5,2 5,7 4 2 14 8 S 1003,9 0 0,0
23.01.2021 01:00:00 1,5 1,1 0,1 5,4 5,7 5 3 13 7 SSW 1003,7 0 0,0
23.01.2021 00:00:00 1,3 1,0 0,0 5,5 5,7 6 4 15 8 SSW 1003,7 0 0,0
22.01.2021 23:00:00 0,6 0,3 0,0 5,6 5,7 3 2 13 7 SSW 1003,1 0 0,8
22.01.2021 22:00:00 0,4 0,1 0,0 5,7 5,7 5 3 12 7 SSW 1002,2 0 1,6
22.01.2021 21:00:00 0,5 0,1 0,0 5,7 5,7 6 3 34 18 W 1000,3 0 2,2
22.01.2021 20:00:00 1,3 0,3 0,1 5,7 5,7 18 10 40 22 WNW 998,1 0 3,1
22.01.2021 19:00:00 4,5 3,8 4,1 5,6 5,7 16 9 36 19 WNW 995,2 0 4,2
22.01.2021 18:00:00 7,4 6,8 6,6 5,6 5,7 0 0 4 2 N 992,7 0 0,0
22.01.2021 17:00:00 7,8 7,0 7,3 5,5 5,7 0 0 7 4 N 992,2 0 0,2
22.01.2021 16:00:00 8,2 7,6 7,8 5,5 5,7 0 0 5 3 N 992,8 0 2,0
22.01.2021 15:00:00 8,4 7,8 8,2 5,4 5,7 0 0 9 5 N 993,1 0 2,1
22.01.2021 14:00:00 8,5 7,7 8,2 5,3 5,7 4 2 16 9 S 994,0 0 4,2
22.01.2021 13:00:00 8,8 7,6 8,0 5,3 5,7 4 2 13 7 SW 994,0 0 1,0
22.01.2021 12:00:00 9,0 7,0 7,9 5,2 5,6 4 2 45 24 S 994,5 0 0,2
22.01.2021 11:00:00 11,0 5,5 9,5 5,2 5,6 22 12 68 37 SSW 994,6 12 0,0
22.01.2021 10:00:00 12,0 4,2 9,9 5,2 5,6 13 7 35 19 SSW 993,9 25 0,0
22.01.2021 09:00:00 10,5 4,4 9,2 5,2 5,6 10 5 36 19 SSW 994,7 22 0,0
22.01.2021 08:00:00 10,6 5,1 9,1 5,1 5,6 13 7 37 20 SSW 995,1 0 0,0
22.01.2021 07:00:00 11,0 4,9 10,0 5,1 5,6 15 8 45 24 SSW 995,8 0 0,0
22.01.2021 06:00:00 11,0 4,9 9,9 5,1 5,6 16 9 44 24 SSW 996,4 0 0,0
22.01.2021 05:00:00 10,8 4,7 9,4 5,1 5,6 19 10 48 26 SSW 997,2 0 0,0
22.01.2021 04:00:00 10,8 5,1 9,1 5,0 5,6 17 9 52 28 SSW 997,8 0 0,0
22.01.2021 03:00:00 10,7 5,2 8,1 5,0 5,6 19 10 55 30 SSW 998,0 0 0,0
22.01.2021 02:00:00 10,7 4,6 8,8 4,9 5,6 18 10 47 25 SSW 998,1 0 0,0
22.01.2021 01:00:00 10,9 4,1 8,2 4,9 5,6 25 13 60 32 SSW 998,7 0 0,0
22.01.2021 00:00:00 10,4 5,4 8,4 4,9 5,6 19 10 49 26 SSW 998,5 0 0,0
21.01.2021 23:00:00 9,6 7,2 8,1 4,8 5,6 14 8 61 33 SSW 998,9 0 1,4
21.01.2021 22:00:00 10,5 6,8 8,3 4,7 5,6 26 14 57 31 SSW 998,9 0 1,0
21.01.2021 21:00:00 10,8 6,0 8,2 4,7 5,6 17 9 48 26 SSW 998,4 0 0,2
21.01.2021 20:00:00 10,9 6,0 8,8 4,6 5,6 15 8 44 24 SSW 999,2 0 0,0
21.01.2021 19:00:00 10,8 6,5 8,7 4,5 5,6 18 10 50 27 SSW 999,9 0 0,0
21.01.2021 18:00:00 12,3 5,0 11,0 4,4 5,6 21 12 47 25 SSW 999,8 0 0,0
21.01.2021 17:00:00 12,0 5,4 10,8 4,3 5,6 15 8 39 21 SSW 1000,5 0 0,0
21.01.2021 16:00:00 12,1 5,5 10,8 4,2 5,6 18 10 42 23 SSW 1001,1 0 0,0
21.01.2021 15:00:00 11,8 5,6 10,7 4,1 5,6 21 11 46 25 SSW 1001,8 0 0,0
21.01.2021 14:00:00 11,5 5,8 10,2 3,9 5,6 22 12 50 27 SSW 1002,2 0 0,0
21.01.2021 13:00:00 10,9 6,2 9,7 3,8 5,6 22 12 48 26 SSW 1003,1 0 0,0
21.01.2021 12:00:00 11,1 6,2 8,5 3,7 5,6 14 8 53 29 SSW 1003,7 0 0,2
21.01.2021 11:00:00 11,6 5,2 11,4 3,7 5,6 19 11 50 27 SSW 1003,6 7 0,0
21.01.2021 10:00:00 11,5 4,9 10,4 3,6 5,6 19 10 65 35 SSW 1003,3 3 0,0
21.01.2021 09:00:00 11,0 4,4 9,9 3,5 5,7 19 10 48 26 SSW 1002,8 0 0,0
21.01.2021 08:00:00 10,9 4,6 8,5 3,4 5,6 18 10 52 28 SSW 1002,7 0 0,2
21.01.2021 07:00:00 10,6 4,7 8,3 3,3 5,6 23 12 55 30 SSW 1002,7 0 0,0
21.01.2021 06:00:00 10,8 4,3 9,2 3,3 5,6 23 12 60 33 SSW 1002,5 0 0,0
21.01.2021 05:00:00 10,6 3,6 7,6 3,2 5,6 17 9 56 30 SSW 1002,3 0 0,0
21.01.2021 04:00:00 10,6 1,9 9,4 3,2 5,7 21 11 45 24 SSW 1002,6 0 0,0
21.01.2021 03:00:00 10,5 0,8 9,5 3,1 5,6 19 11 41 22 SSW 1002,4 0 0,0
21.01.2021 02:00:00 11,1 -0,4 10,1 3,0 5,6 19 10 41 22 SSW 1002,2 0 0,0
21.01.2021 01:00:00 11,2 -0,6 10,0 3,0 5,6 17 9 46 25 SSW 1001,9 0 0,0
21.01.2021 00:00:00 11,5 -0,3 9,9 3,0 5,7 19 11 42 23 SSW 1002,1 0 0,0
20.01.2021 23:00:00 11,3 0,1 9,2 2,9 5,6 17 9 50 27 SSW 1002,0 0 0,0
20.01.2021 22:00:00 10,8 -0,1 9,4 2,9 5,6 13 7 41 22 SSW 1002,9 0 0,0
20.01.2021 21:00:00 11,0 0,1 9,4 2,8 5,6 19 10 42 23 SSW 1003,5 0 0,0
20.01.2021 20:00:00 11,1 -0,1 8,7 2,7 5,7 13 7 37 20 SSW 1003,5 0 0,0
20.01.2021 19:00:00 11,0 0,1 9,4 2,6 5,7 9 5 37 20 S 1003,6 0 0,0
20.01.2021 18:00:00 11,6 0,1 10,3 2,4 5,7 16 9 44 24 SSW 1003,4 0 0,0
20.01.2021 17:00:00 12,0 0,4 11,0 2,3 5,7 16 9 43 23 SSW 1003,1 0 0,0
20.01.2021 16:00:00 12,3 1,0 11,8 2,1 5,7 19 10 52 28 SSW 1003,6 0 0,0
20.01.2021 15:00:00 12,5 0,9 12,2 2,0 5,7 22 12 60 32 SSW 1004,4 10 0,0
20.01.2021 14:00:00 12,3 1,3 12,9 1,9 5,7 18 10 56 31 SSW 1005,3 31 0,0
20.01.2021 13:00:00 12,3 1,3 12,3 1,9 5,7 19 11 53 29 SSW 1006,2 43 0,0
20.01.2021 12:00:00 11,7 1,6 10,1 1,9 5,7 18 10 45 24 SSW 1007,4 43 0,0
20.01.2021 11:00:00 10,3 1,6 9,3 1,9 5,7 16 9 50 27 SSW 1008,8 0 0,0
20.01.2021 10:00:00 9,8 1,7 7,1 1,8 5,7 16 9 44 24 SSW 1009,3 0 0,0
20.01.2021 09:00:00 8,5 1,4 6,7 1,9 5,7 10 5 31 17 SSW 1009,9 0 0,0
20.01.2021 08:00:00 8,4 1,3 6,4 1,9 5,7 12 6 35 19 SSW 1010,3 0 0,0
20.01.2021 07:00:00 8,0 0,9 5,6 1,9 5,7 11 6 30 16 SSW 1011,0 0 0,0
20.01.2021 06:00:00 7,4 -0,3 5,5 1,9 5,7 9 5 34 18 SSW 1011,8 0 0,0
20.01.2021 05:00:00 7,1 -1,1 4,5 1,9 5,7 11 6 34 18 SSW 1012,5 0 0,0
20.01.2021 04:00:00 6,0 -3,4 1,0 1,9 5,7 9 5 24 13 SSW 1013,4 0 0,0
20.01.2021 03:00:00 2,8 -4,9 -0,9 1,9 5,7 5 3 15 8 SW 1014,5 0 0,0
20.01.2021 02:00:00 2,9 -4,6 -0,8 1,9 5,7 4 2 12 6 SW 1014,3 0 0,0
20.01.2021 01:00:00 4,9 -5,2 0,3 1,9 5,7 7 4 20 11 SW 1014,8 0 0,0
20.01.2021 00:00:00 3,6 -4,9 -0,8 1,9 5,7 6 3 15 8 SW 1015,4 0 0,0
19.01.2021 23:00:00 1,2 -4,1 -2,0 1,9 5,7 4 2 11 6 SW 1016,4 0 0,0
19.01.2021 22:00:00 2,7 -4,3 -2,0 1,9 5,7 6 3 14 7 SW 1016,6 0 0,0
19.01.2021 21:00:00 2,7 -3,2 -1,6 1,9 5,7 0 0 5 3 N 1017,0 0 0,0
19.01.2021 20:00:00 3,2 -2,3 -0,7 1,9 5,7 2 1 8 5 S 1017,4 0 0,0
19.01.2021 19:00:00 4,4 -1,6 1,1 1,9 5,7 3 2 14 8 SSW 1018,0 0 0,0
19.01.2021 18:00:00 5,8 -2,3 2,6 1,9 5,7 3 1 12 6 WSW 1018,2 0 0,0
19.01.2021 17:00:00 6,6 -1,8 5,8 1,9 5,8 3 2 11 6 S 1018,2 17 0,0
19.01.2021 16:00:00 6,2 -1,7 6,1 1,9 5,7 6 3 18 10 SSW 1018,7 7 0,0
19.01.2021 15:00:00 6,3 -2,1 6,6 1,9 5,7 10 5 25 13 SW 1019,4 24 0,0
19.01.2021 14:00:00 5,9 -1,5 6,8 1,9 5,8 9 5 20 11 WSW 1019,9 34 0,0
19.01.2021 13:00:00 5,3 -2,8 6,7 1,9 5,8 11 6 29 15 SW 1020,8 51 0,0
19.01.2021 12:00:00 3,8 -2,6 2,8 1,9 5,8 9 5 19 10 SW 1021,7 32 0,0
19.01.2021 11:00:00 1,7 -2,3 0,6 1,9 5,8 4 2 13 7 S 1022,5 15 0,0
19.01.2021 10:00:00 0,6 -2,6 -1,5 1,9 5,8 6 3 12 6 SSW 1023,3 9 0,0
19.01.2021 09:00:00 -0,8 -2,7 -3,8 1,9 5,8 3 1 8 4 SSW 1023,7 12 0,0
19.01.2021 08:00:00 -1,5 -2,8 -4,4 1,9 5,8 3 2 10 5 S 1024,1 0 0,0
19.01.2021 07:00:00 -1,7 -2,8 -4,8 1,9 5,8 0 0 5 3 N 1024,5 0 0,0
19.01.2021 06:00:00 -1,3 -2,7 -4,9 1,9 5,8 3 1 6 4 SSW 1025,0 0 0,0
19.01.2021 05:00:00 -1,3 -2,7 -4,8 2,0 5,8 0 0 5 3 N 1025,3 0 0,0
19.01.2021 04:00:00 -0,7 -2,4 -3,6 1,9 5,8 0 0 6 3 N 1025,6 0 0,0
19.01.2021 03:00:00 -0,3 -2,0 -2,9 1,9 5,8 0 0 8 4 N 1026,3 0 0,0
19.01.2021 02:00:00 0,5 -1,4 -1,9 2,0 5,8 0 0 4 2 N 1026,6 0 0,0
19.01.2021 01:00:00 0,8 -1,0 -0,4 2,0 5,8 0 0 5 3 N 1027,5 0 0,0
19.01.2021 00:00:00 0,6 -0,3 -0,2 1,9 5,8 0 0 5 3 N 1028,0 0 0,0
18.01.2021 23:00:00 0,5 -0,2 -0,3 1,9 5,8 0 0 3 2 N 1028,5 0 0,0
18.01.2021 22:00:00 0,5 -0,1 -1,3 2,0 5,8 0 0 3 1 N 1028,8 0 0,0
18.01.2021 21:00:00 0,7 0,0 -1,2 1,9 5,8 0 0 7 4 N 1028,9 0 0,0
18.01.2021 20:00:00 1,0 0,1 -1,2 2,0 5,8 0 0 3 1 N 1029,0 0 0,0
18.01.2021 19:00:00 1,7 0,5 -0,1 2,0 5,8 2 1 6 3 SSW 1028,9 0 0,0
18.01.2021 18:00:00 2,0 0,7 0,2 2,0 5,8 0 0 7 4 N 1028,7 0 0,0
18.01.2021 17:00:00 3,1 1,3 2,4 1,9 5,8 6 3 16 8 SSW 1028,6 0 0,0
18.01.2021 16:00:00 3,4 1,6 3,3 2,0 5,8 4 2 9 5 SW 1028,7 0 0,0
18.01.2021 15:00:00 3,5 1,4 3,2 2,0 5,8 2 1 13 7 SSW 1028,9 0 0,0
18.01.2021 14:00:00 3,1 1,8 3,1 2,0 5,9 6 3 14 8 SW 1029,2 0 0,0
18.01.2021 13:00:00 2,7 1,5 2,5 2,0 5,8 5 3 12 6 SW 1029,9 0 0,0
18.01.2021 12:00:00 2,2 1,5 2,4 2,0 5,8 5 3 14 8 SW 1030,6 0 0,0
18.01.2021 11:00:00 2,0 1,4 1,7 2,0 5,9 2 1 6 4 SW 1031,0 0 0,0
18.01.2021 10:00:00 1,5 1,2 0,6 2,0 5,9 0 0 5 3 N 1030,7 0 0,0
18.01.2021 09:00:00 1,0 0,7 0,2 2,0 5,9 0 0 3 2 N 1030,4 0 0,0
18.01.2021 08:00:00 0,8 0,5 0,2 2,0 5,9 0 0 5 3 N 1030,1 0 0,0
18.01.2021 07:00:00 0,7 0,4 0,0 2,0 5,9 0 0 8 4 N 1030,0 0 0,6
18.01.2021 06:00:00 0,7 0,3 0,1 2,0 5,9 4 2 7 4 SW 1029,7 0 0,4

tt = Température de l'air
td = dewpoint
tt 5cm = Température de l'air 5cm
tt -20cm = Température de l'air -20cm
tt -100cm = Température de l'air -100cm
ff = Vitesse du vent
fx = gusts
dd = Direction du vent
ppp = reduced air pressure
sd = Ensoleillement
rr = Quantités de précipitations

stations d'obs. à proximité